sensor_id;sensor_type;location;lat;lon;timestamp;pressure;altitude;pressure_sealevel;temperature;humidity
51083;BME280;37131;42.694;23.350;2023-12-22T00:00:28;93985.09;;;-0.14;79.65
51083;BME280;37131;42.694;23.350;2023-12-22T00:02:53;93980.56;;;-0.11;79.91
51083;BME280;37131;42.694;23.350;2023-12-22T00:05:19;93978.69;;;-0.09;78.58
51083;BME280;37131;42.694;23.350;2023-12-22T00:07:44;93965.63;;;-0.04;79.28
51083;BME280;37131;42.694;23.350;2023-12-22T00:10:09;93959.50;;;-0.02;77.83
51083;BME280;37131;42.694;23.350;2023-12-22T00:12:35;93967.50;;;-0.06;79.63
51083;BME280;37131;42.694;23.350;2023-12-22T00:15:00;93964.56;;;-0.02;79.66
51083;BME280;37131;42.694;23.350;2023-12-22T00:17:26;93957.75;;;-0.01;80.11
51083;BME280;37131;42.694;23.350;2023-12-22T00:19:51;93952.28;;;0.13;79.25
51083;BME280;37131;42.694;23.350;2023-12-22T00:22:16;93953.78;;;0.25;77.57
51083;BME280;37131;42.694;23.350;2023-12-22T00:24:42;93953.25;;;0.31;77.96
51083;BME280;37131;42.694;23.350;2023-12-22T00:27:07;93940.97;;;0.27;77.92
51083;BME280;37131;42.694;23.350;2023-12-22T00:29:33;93937.50;;;0.38;77.66
51083;BME280;37131;42.694;23.350;2023-12-22T00:32:01;93921.72;;;0.44;77.84
51083;BME280;37131;42.694;23.350;2023-12-22T00:34:26;93933.63;;;0.43;76.54
51083;BME280;37131;42.694;23.350;2023-12-22T00:36:52;93922.38;;;0.55;78.00
51083;BME280;37131;42.694;23.350;2023-12-22T00:39:17;93923.63;;;0.51;78.18
51083;BME280;37131;42.694;23.350;2023-12-22T00:41:42;93919.97;;;0.63;76.83
51083;BME280;37131;42.694;23.350;2023-12-22T00:44:08;93911.72;;;0.42;78.51
51083;BME280;37131;42.694;23.350;2023-12-22T00:46:33;93907.41;;;0.52;77.74
51083;BME280;37131;42.694;23.350;2023-12-22T00:48:59;93906.63;;;0.52;78.37
51083;BME280;37131;42.694;23.350;2023-12-22T00:51:24;93916.38;;;0.56;76.38
51083;BME280;37131;42.694;23.350;2023-12-22T00:53:49;93913.16;;;0.54;76.64
51083;BME280;37131;42.694;23.350;2023-12-22T00:56:15;93914.25;;;0.42;78.42
51083;BME280;37131;42.694;23.350;2023-12-22T00:58:40;93911.19;;;0.48;78.47
51083;BME280;37131;42.694;23.350;2023-12-22T01:01:06;93904.91;;;0.43;77.82
51083;BME280;37131;42.694;23.350;2023-12-22T01:03:31;93895.53;;;0.24;79.13
51083;BME280;37131;42.694;23.350;2023-12-22T01:05:57;93898.75;;;0.36;78.96
51083;BME280;37131;42.694;23.350;2023-12-22T01:08:22;93905.97;;;0.40;77.57
51083;BME280;37131;42.694;23.350;2023-12-22T01:10:48;93896.34;;;0.44;78.46
51083;BME280;37131;42.694;23.350;2023-12-22T01:13:13;93909.44;;;0.29;78.51
51083;BME280;37131;42.694;23.350;2023-12-22T01:15:39;93907.16;;;0.36;77.29
51083;BME280;37131;42.694;23.350;2023-12-22T01:18:05;93899.94;;;0.41;77.67
51083;BME280;37131;42.694;23.350;2023-12-22T01:20:30;93903.16;;;0.33;77.34
51083;BME280;37131;42.694;23.350;2023-12-22T01:22:55;93887.50;;;0.38;77.86
51083;BME280;37131;42.694;23.350;2023-12-22T01:25:21;93892.06;;;0.35;78.02
51083;BME280;37131;42.694;23.350;2023-12-22T01:27:46;93901.03;;;0.48;78.60
51083;BME280;37131;42.694;23.350;2023-12-22T01:30:13;93887.50;;;0.57;77.02
51083;BME280;37131;42.694;23.350;2023-12-22T01:32:38;93880.94;;;0.55;77.61
51083;BME280;37131;42.694;23.350;2023-12-22T01:35:04;93888.44;;;0.56;77.63
51083;BME280;37131;42.694;23.350;2023-12-22T01:37:35;93877.72;;;0.62;77.83
51083;BME280;37131;42.694;23.350;2023-12-22T01:40:00;93885.09;;;0.65;77.61
51083;BME280;37131;42.694;23.350;2023-12-22T01:42:26;93875.44;;;0.69;78.18
51083;BME280;37131;42.694;23.350;2023-12-22T01:44:51;93878.00;;;0.69;77.74
51083;BME280;37131;42.694;23.350;2023-12-22T01:47:16;93862.75;;;0.79;77.51
51083;BME280;37131;42.694;23.350;2023-12-22T01:49:42;93861.28;;;0.76;77.10
51083;BME280;37131;42.694;23.350;2023-12-22T01:52:08;93855.66;;;0.73;76.98
51083;BME280;37131;42.694;23.350;2023-12-22T01:54:33;93857.78;;;0.87;76.32
51083;BME280;37131;42.694;23.350;2023-12-22T01:57:00;93848.56;;;0.86;77.18
51083;BME280;37131;42.694;23.350;2023-12-22T01:59:25;93847.88;;;0.84;76.77
51083;BME280;37131;42.694;23.350;2023-12-22T02:01:52;93844.00;;;0.89;75.65
51083;BME280;37131;42.694;23.350;2023-12-22T02:04:19;93846.97;;;0.65;77.05
51083;BME280;37131;42.694;23.350;2023-12-22T02:06:44;93857.78;;;0.77;77.27
51083;BME280;37131;42.694;23.350;2023-12-22T02:09:10;93865.16;;;0.71;77.37
51083;BME280;37131;42.694;23.350;2023-12-22T02:11:37;93858.91;;;0.26;77.33
51083;BME280;37131;42.694;23.350;2023-12-22T02:14:03;93861.72;;;-0.06;78.04
51083;BME280;37131;42.694;23.350;2023-12-22T02:19:11;93850.03;;;-0.37;81.69
51083;BME280;37131;42.694;23.350;2023-12-22T02:22:00;93852.69;;;-0.39;81.78
51083;BME280;37131;42.694;23.350;2023-12-22T02:24:26;93857.34;;;-0.53;81.69
51083;BME280;37131;42.694;23.350;2023-12-22T02:26:53;93856.56;;;-0.54;82.60
51083;BME280;37131;42.694;23.350;2023-12-22T02:29:21;93847.09;;;-0.42;81.59
51083;BME280;37131;42.694;23.350;2023-12-22T02:31:51;93841.63;;;-0.38;82.76
51083;BME280;37131;42.694;23.350;2023-12-22T02:34:19;93840.59;;;-0.25;80.54
51083;BME280;37131;42.694;23.350;2023-12-22T02:36:47;93847.91;;;-0.32;80.63
51083;BME280;37131;42.694;23.350;2023-12-22T02:39:14;93846.03;;;-0.30;81.54
51083;BME280;37131;42.694;23.350;2023-12-22T02:41:43;93852.97;;;-0.32;81.04
51083;BME280;37131;42.694;23.350;2023-12-22T02:44:08;93848.56;;;-0.40;81.42
51083;BME280;37131;42.694;23.350;2023-12-22T02:46:34;93844.47;;;-0.21;79.73
51083;BME280;37131;42.694;23.350;2023-12-22T02:48:59;93825.59;;;-0.38;80.17
51083;BME280;37131;42.694;23.350;2023-12-22T02:51:24;93826.84;;;-0.23;81.31
51083;BME280;37131;42.694;23.350;2023-12-22T02:53:50;93815.09;;;-0.14;80.41
51083;BME280;37131;42.694;23.350;2023-12-22T02:56:15;93825.25;;;-0.05;80.83
51083;BME280;37131;42.694;23.350;2023-12-22T02:58:41;93814.97;;;0.07;79.83
51083;BME280;37131;42.694;23.350;2023-12-22T03:01:06;93816.84;;;-0.05;80.03
51083;BME280;37131;42.694;23.350;2023-12-22T03:03:31;93820.44;;;-0.08;80.03
51083;BME280;37131;42.694;23.350;2023-12-22T03:05:57;93825.00;;;-0.02;80.35
51083;BME280;37131;42.694;23.350;2023-12-22T03:08:22;93818.03;;;0.00;78.85
51083;BME280;37131;42.694;23.350;2023-12-22T03:10:47;93811.88;;;0.03;79.52
51083;BME280;37131;42.694;23.350;2023-12-22T03:13:13;93806.69;;;0.14;80.38
51083;BME280;37131;42.694;23.350;2023-12-22T03:15:38;93816.28;;;0.30;79.70
51083;BME280;37131;42.694;23.350;2023-12-22T03:18:04;93810.53;;;0.28;79.45
51083;BME280;37131;42.694;23.350;2023-12-22T03:20:29;93818.16;;;0.38;78.67
51083;BME280;37131;42.694;23.350;2023-12-22T03:22:54;93815.75;;;0.17;79.64
51083;BME280;37131;42.694;23.350;2023-12-22T03:25:20;93818.03;;;-0.09;78.57
51083;BME280;37131;42.694;23.350;2023-12-22T03:27:45;93815.78;;;-0.03;80.09
51083;BME280;37131;42.694;23.350;2023-12-22T03:30:11;93816.03;;;0.04;80.02
51083;BME280;37131;42.694;23.350;2023-12-22T03:32:36;93823.78;;;0.12;79.65
51083;BME280;37131;42.694;23.350;2023-12-22T03:35:02;93814.41;;;0.03;79.21
51083;BME280;37131;42.694;23.350;2023-12-22T03:37:27;93813.09;;;-0.11;80.76
51083;BME280;37131;42.694;23.350;2023-12-22T03:39:53;93816.28;;;0.01;81.03
51083;BME280;37131;42.694;23.350;2023-12-22T03:42:18;93802.41;;;0.15;80.32
51083;BME280;37131;42.694;23.350;2023-12-22T03:44:43;93809.06;;;0.06;80.08
51083;BME280;37131;42.694;23.350;2023-12-22T03:47:09;93799.59;;;0.18;81.05
51083;BME280;37131;42.694;23.350;2023-12-22T03:49:34;93806.81;;;0.22;79.95
51083;BME280;37131;42.694;23.350;2023-12-22T03:52:00;93807.22;;;0.27;80.38
51083;BME280;37131;42.694;23.350;2023-12-22T03:54:25;93814.56;;;0.30;80.72
51083;BME280;37131;42.694;23.350;2023-12-22T03:56:50;93805.06;;;0.32;80.83
51083;BME280;37131;42.694;23.350;2023-12-22T03:59:16;93804.00;;;0.45;81.42
51083;BME280;37131;42.694;23.350;2023-12-22T04:01:43;93806.47;;;0.54;81.04
51083;BME280;37131;42.694;23.350;2023-12-22T04:04:09;93802.50;;;0.52;81.21
51083;BME280;37131;42.694;23.350;2023-12-22T04:06:38;93800.59;;;0.54;80.44
51083;BME280;37131;42.694;23.350;2023-12-22T04:09:04;93802.31;;;0.73;80.39
51083;BME280;37131;42.694;23.350;2023-12-22T04:11:29;93798.72;;;0.65;82.19
51083;BME280;37131;42.694;23.350;2023-12-22T04:13:54;93802.28;;;0.82;79.84
51083;BME280;37131;42.694;23.350;2023-12-22T04:16:20;93813.63;;;0.88;80.14
51083;BME280;37131;42.694;23.350;2023-12-22T04:18:45;93806.56;;;0.82;80.00
51083;BME280;37131;42.694;23.350;2023-12-22T04:21:10;93810.97;;;0.89;80.70
51083;BME280;37131;42.694;23.350;2023-12-22T04:23:36;93813.34;;;1.01;80.58
51083;BME280;37131;42.694;23.350;2023-12-22T04:26:01;93810.00;;;1.00;81.19
51083;BME280;37131;42.694;23.350;2023-12-22T04:28:27;93806.13;;;0.96;80.78
51083;BME280;37131;42.694;23.350;2023-12-22T04:30:52;93795.81;;;0.97;80.96
51083;BME280;37131;42.694;23.350;2023-12-22T04:33:18;93794.47;;;1.03;79.99
51083;BME280;37131;42.694;23.350;2023-12-22T04:35:43;93794.91;;;0.89;82.02
51083;BME280;37131;42.694;23.350;2023-12-22T04:38:10;93799.38;;;1.05;79.83
51083;BME280;37131;42.694;23.350;2023-12-22T04:40:35;93784.06;;;0.96;81.71
51083;BME280;37131;42.694;23.350;2023-12-22T04:43:01;93790.31;;;1.02;82.24
51083;BME280;37131;42.694;23.350;2023-12-22T04:45:26;93777.03;;;1.08;81.25
51083;BME280;37131;42.694;23.350;2023-12-22T04:47:51;93782.88;;;0.91;83.29
51083;BME280;37131;42.694;23.350;2023-12-22T04:50:17;93787.66;;;0.94;82.46
51083;BME280;37131;42.694;23.350;2023-12-22T04:52:42;93767.47;;;0.92;80.68
51083;BME280;37131;42.694;23.350;2023-12-22T04:55:07;93782.16;;;0.98;83.41
51083;BME280;37131;42.694;23.350;2023-12-22T04:57:33;93786.63;;;1.14;82.06
51083;BME280;37131;42.694;23.350;2023-12-22T04:59:58;93792.78;;;1.12;82.63
51083;BME280;37131;42.694;23.350;2023-12-22T05:02:24;93783.25;;;1.23;82.66
51083;BME280;37131;42.694;23.350;2023-12-22T05:04:49;93772.94;;;1.25;82.81
51083;BME280;37131;42.694;23.350;2023-12-22T05:07:14;93766.38;;;1.22;82.91
51083;BME280;37131;42.694;23.350;2023-12-22T05:09:43;93761.13;;;1.33;82.48
51083;BME280;37131;42.694;23.350;2023-12-22T05:12:08;93756.22;;;1.22;83.09
51083;BME280;37131;42.694;23.350;2023-12-22T05:14:34;93765.16;;;1.26;82.60
51083;BME280;37131;42.694;23.350;2023-12-22T05:16:59;93772.09;;;1.34;81.89
51083;BME280;37131;42.694;23.350;2023-12-22T05:19:24;93761.06;;;1.16;83.43
51083;BME280;37131;42.694;23.350;2023-12-22T05:21:50;93756.38;;;1.21;82.38
51083;BME280;37131;42.694;23.350;2023-12-22T05:24:17;93765.41;;;1.33;82.40
51083;BME280;37131;42.694;23.350;2023-12-22T05:26:43;93765.81;;;1.28;82.79
51083;BME280;37131;42.694;23.350;2023-12-22T05:29:10;93774.41;;;1.27;82.00
51083;BME280;37131;42.694;23.350;2023-12-22T05:31:38;93767.34;;;1.21;83.89
51083;BME280;37131;42.694;23.350;2023-12-22T05:34:03;93771.00;;;1.09;84.23
51083;BME280;37131;42.694;23.350;2023-12-22T05:36:29;93767.94;;;1.06;83.33
51083;BME280;37131;42.694;23.350;2023-12-22T05:38:54;93769.50;;;1.16;82.23
51083;BME280;37131;42.694;23.350;2023-12-22T05:41:20;93773.34;;;1.20;84.25
51083;BME280;37131;42.694;23.350;2023-12-22T05:43:45;93776.66;;;1.30;82.79
51083;BME280;37131;42.694;23.350;2023-12-22T05:46:10;93770.53;;;1.51;81.80
51083;BME280;37131;42.694;23.350;2023-12-22T05:48:36;93772.56;;;1.65;80.99
51083;BME280;37131;42.694;23.350;2023-12-22T05:51:02;93763.75;;;1.59;80.64
51083;BME280;37131;42.694;23.350;2023-12-22T05:53:33;93778.88;;;1.43;81.06
51083;BME280;37131;42.694;23.350;2023-12-22T05:55:58;93775.19;;;1.55;81.94
51083;BME280;37131;42.694;23.350;2023-12-22T05:58:24;93765.72;;;1.48;81.84
51083;BME280;37131;42.694;23.350;2023-12-22T06:00:49;93760.78;;;1.46;81.09
51083;BME280;37131;42.694;23.350;2023-12-22T06:03:14;93765.44;;;1.51;81.04
51083;BME280;37131;42.694;23.350;2023-12-22T06:05:40;93767.56;;;1.55;80.50
51083;BME280;37131;42.694;23.350;2023-12-22T06:08:10;93763.91;;;1.40;82.06
51083;BME280;37131;42.694;23.350;2023-12-22T06:10:35;93768.56;;;1.45;80.85
51083;BME280;37131;42.694;23.350;2023-12-22T06:13:01;93768.66;;;1.53;81.87
51083;BME280;37131;42.694;23.350;2023-12-22T06:15:29;93771.25;;;1.61;80.86
51083;BME280;37131;42.694;23.350;2023-12-22T06:17:54;93773.72;;;1.71;80.90
51083;BME280;37131;42.694;23.350;2023-12-22T06:20:20;93768.94;;;1.67;81.43
51083;BME280;37131;42.694;23.350;2023-12-22T06:22:45;93772.78;;;1.72;81.48
51083;BME280;37131;42.694;23.350;2023-12-22T06:25:10;93765.38;;;1.78;82.17
51083;BME280;37131;42.694;23.350;2023-12-22T06:27:36;93770.34;;;1.97;80.92
51083;BME280;37131;42.694;23.350;2023-12-22T06:30:04;93776.28;;;2.06;81.28
51083;BME280;37131;42.694;23.350;2023-12-22T06:32:30;93776.91;;;2.08;81.15
51083;BME280;37131;42.694;23.350;2023-12-22T06:34:55;93786.97;;;2.10;80.69
51083;BME280;37131;42.694;23.350;2023-12-22T06:37:20;93773.50;;;2.17;80.05
51083;BME280;37131;42.694;23.350;2023-12-22T06:39:46;93778.75;;;2.16;79.92
51083;BME280;37131;42.694;23.350;2023-12-22T06:42:11;93778.75;;;2.16;79.99
51083;BME280;37131;42.694;23.350;2023-12-22T06:44:37;93789.34;;;2.29;79.41
51083;BME280;37131;42.694;23.350;2023-12-22T06:47:03;93776.97;;;2.34;80.08
51083;BME280;37131;42.694;23.350;2023-12-22T06:49:28;93783.25;;;2.22;80.78
51083;BME280;37131;42.694;23.350;2023-12-22T06:51:54;93789.66;;;2.26;80.63
51083;BME280;37131;42.694;23.350;2023-12-22T06:54:19;93790.94;;;2.30;79.88
51083;BME280;37131;42.694;23.350;2023-12-22T06:56:45;93785.56;;;2.33;81.57
51083;BME280;37131;42.694;23.350;2023-12-22T06:59:10;93781.56;;;2.30;82.03
51083;BME280;37131;42.694;23.350;2023-12-22T07:01:37;93786.72;;;2.39;82.27
51083;BME280;37131;42.694;23.350;2023-12-22T07:04:03;93785.53;;;2.51;81.20
51083;BME280;37131;42.694;23.350;2023-12-22T07:06:30;93784.75;;;2.50;81.49
51083;BME280;37131;42.694;23.350;2023-12-22T07:11:45;93775.50;;;2.49;81.66
51083;BME280;37131;42.694;23.350;2023-12-22T07:14:11;93784.69;;;2.42;81.77
51083;BME280;37131;42.694;23.350;2023-12-22T07:16:36;93785.69;;;2.49;81.80
51083;BME280;37131;42.694;23.350;2023-12-22T07:19:02;93791.28;;;2.53;81.91
51083;BME280;37131;42.694;23.350;2023-12-22T07:21:28;93794.22;;;2.66;80.86
51083;BME280;37131;42.694;23.350;2023-12-22T07:23:53;93793.19;;;2.77;80.05
51083;BME280;37131;42.694;23.350;2023-12-22T07:26:18;93806.88;;;2.76;80.10
51083;BME280;37131;42.694;23.350;2023-12-22T07:28:47;93801.31;;;2.80;79.01
51083;BME280;37131;42.694;23.350;2023-12-22T07:31:12;93802.31;;;2.87;79.69
51083;BME280;37131;42.694;23.350;2023-12-22T07:33:37;93796.38;;;2.79;80.36
51083;BME280;37131;42.694;23.350;2023-12-22T07:36:04;93804.88;;;2.87;80.46
51083;BME280;37131;42.694;23.350;2023-12-22T07:38:30;93801.91;;;2.74;81.27
51083;BME280;37131;42.694;23.350;2023-12-22T07:40:55;93805.19;;;2.84;81.42
51083;BME280;37131;42.694;23.350;2023-12-22T07:43:20;93807.56;;;2.86;80.76
51083;BME280;37131;42.694;23.350;2023-12-22T07:45:46;93803.47;;;2.93;80.90
51083;BME280;37131;42.694;23.350;2023-12-22T07:48:13;93804.44;;;2.92;80.16
51083;BME280;37131;42.694;23.350;2023-12-22T07:50:39;93808.22;;;2.88;80.90
51083;BME280;37131;42.694;23.350;2023-12-22T07:53:04;93815.31;;;3.02;80.60
51083;BME280;37131;42.694;23.350;2023-12-22T07:55:29;93822.97;;;3.02;80.56
51083;BME280;37131;42.694;23.350;2023-12-22T07:57:55;93830.66;;;2.84;80.78
51083;BME280;37131;42.694;23.350;2023-12-22T08:00:20;93832.91;;;2.87;81.43
51083;BME280;37131;42.694;23.350;2023-12-22T08:02:46;93830.13;;;2.98;81.19
51083;BME280;37131;42.694;23.350;2023-12-22T08:05:12;93831.47;;;3.11;80.74
51083;BME280;37131;42.694;23.350;2023-12-22T08:07:38;93841.88;;;3.25;80.56
51083;BME280;37131;42.694;23.350;2023-12-22T08:10:04;93848.53;;;3.10;80.75
51083;BME280;37131;42.694;23.350;2023-12-22T08:12:29;93858.16;;;3.24;80.59
51083;BME280;37131;42.694;23.350;2023-12-22T08:14:56;93859.50;;;3.37;78.86
51083;BME280;37131;42.694;23.350;2023-12-22T08:17:22;93864.41;;;3.30;79.84
51083;BME280;37131;42.694;23.350;2023-12-22T08:19:47;93868.78;;;3.46;78.99
51083;BME280;37131;42.694;23.350;2023-12-22T08:22:12;93853.44;;;3.38;79.90
51083;BME280;37131;42.694;23.350;2023-12-22T08:24:38;93860.53;;;3.26;81.29
51083;BME280;37131;42.694;23.350;2023-12-22T08:27:04;93867.84;;;3.21;80.03
51083;BME280;37131;42.694;23.350;2023-12-22T08:29:31;93858.94;;;3.25;80.31
51083;BME280;37131;42.694;23.350;2023-12-22T08:31:56;93871.28;;;3.38;80.52
51083;BME280;37131;42.694;23.350;2023-12-22T08:34:22;93864.94;;;3.16;81.58
51083;BME280;37131;42.694;23.350;2023-12-22T08:36:47;93862.75;;;3.21;81.07
51083;BME280;37131;42.694;23.350;2023-12-22T08:39:12;93866.69;;;3.07;82.34
51083;BME280;37131;42.694;23.350;2023-12-22T08:41:38;93857.53;;;3.30;83.23
51083;BME280;37131;42.694;23.350;2023-12-22T08:44:06;93874.34;;;3.41;82.58
51083;BME280;37131;42.694;23.350;2023-12-22T08:46:33;93864.06;;;3.25;84.07
51083;BME280;37131;42.694;23.350;2023-12-22T08:48:58;93859.94;;;3.32;83.43
51083;BME280;37131;42.694;23.350;2023-12-22T08:51:25;93859.94;;;3.32;82.93
51083;BME280;37131;42.694;23.350;2023-12-22T08:53:51;93862.34;;;3.33;83.90
51083;BME280;37131;42.694;23.350;2023-12-22T08:56:17;93869.84;;;3.35;83.78
51083;BME280;37131;42.694;23.350;2023-12-22T08:58:43;93866.25;;;3.46;83.06
51083;BME280;37131;42.694;23.350;2023-12-22T09:01:14;93868.13;;;3.44;82.23
51083;BME280;37131;42.694;23.350;2023-12-22T09:03:39;93877.44;;;3.27;84.18
51083;BME280;37131;42.694;23.350;2023-12-22T09:06:10;93881.00;;;3.34;83.74
51083;BME280;37131;42.694;23.350;2023-12-22T09:08:35;93877.06;;;3.40;83.00
51083;BME280;37131;42.694;23.350;2023-12-22T09:11:01;93882.56;;;3.27;83.56
51083;BME280;37131;42.694;23.350;2023-12-22T09:13:26;93891.72;;;3.38;83.68
51083;BME280;37131;42.694;23.350;2023-12-22T09:15:51;93878.34;;;3.44;83.97
51083;BME280;37131;42.694;23.350;2023-12-22T09:18:17;93896.00;;;3.63;83.59
51083;BME280;37131;42.694;23.350;2023-12-22T09:20:42;93891.34;;;3.66;83.33
51083;BME280;37131;42.694;23.350;2023-12-22T09:23:07;93890.19;;;3.53;83.90
51083;BME280;37131;42.694;23.350;2023-12-22T09:25:35;93885.59;;;3.64;84.17
51083;BME280;37131;42.694;23.350;2023-12-22T09:28:00;93887.09;;;3.75;84.03
51083;BME280;37131;42.694;23.350;2023-12-22T09:30:26;93889.03;;;3.81;83.48
51083;BME280;37131;42.694;23.350;2023-12-22T09:32:51;93877.78;;;4.00;83.42
51083;BME280;37131;42.694;23.350;2023-12-22T09:35:17;93881.78;;;4.03;82.71
51083;BME280;37131;42.694;23.350;2023-12-22T09:37:43;93877.97;;;4.15;82.46
51083;BME280;37131;42.694;23.350;2023-12-22T09:40:09;93879.06;;;4.20;83.17
51083;BME280;37131;42.694;23.350;2023-12-22T09:42:37;93877.00;;;4.24;83.29
51083;BME280;37131;42.694;23.350;2023-12-22T09:45:05;93883.72;;;4.25;84.53
51083;BME280;37131;42.694;23.350;2023-12-22T09:47:32;93875.94;;;4.43;83.52
51083;BME280;37131;42.694;23.350;2023-12-22T09:49:59;93878.00;;;4.39;83.11
51083;BME280;37131;42.694;23.350;2023-12-22T09:52:27;93877.84;;;4.41;82.59
51083;BME280;37131;42.694;23.350;2023-12-22T09:54:54;93869.53;;;4.47;83.12
51083;BME280;37131;42.694;23.350;2023-12-22T09:57:21;93869.22;;;4.50;82.77
51083;BME280;37131;42.694;23.350;2023-12-22T09:59:51;93855.63;;;4.41;81.67
51083;BME280;37131;42.694;23.350;2023-12-22T10:02:17;93853.88;;;4.50;81.05
51083;BME280;37131;42.694;23.350;2023-12-22T10:04:43;93847.66;;;4.52;81.41
51083;BME280;37131;42.694;23.350;2023-12-22T10:07:09;93837.44;;;4.52;81.33
51083;BME280;37131;42.694;23.350;2023-12-22T10:09:39;93854.84;;;4.73;80.59
51083;BME280;37131;42.694;23.350;2023-12-22T10:12:06;93857.06;;;4.27;83.65
51083;BME280;37131;42.694;23.350;2023-12-22T10:14:34;93853.69;;;4.19;84.33
51083;BME280;37131;42.694;23.350;2023-12-22T10:17:01;93845.38;;;4.25;83.99
51083;BME280;37131;42.694;23.350;2023-12-22T10:19:26;93835.19;;;4.33;83.43
51083;BME280;37131;42.694;23.350;2023-12-22T10:21:52;93827.53;;;4.49;82.75
51083;BME280;37131;42.694;23.350;2023-12-22T10:24:45;93836.47;;;4.45;82.95
51083;BME280;37131;42.694;23.350;2023-12-22T10:27:18;93825.78;;;4.58;82.59
51083;BME280;37131;42.694;23.350;2023-12-22T10:29:48;93816.03;;;4.53;82.88
51083;BME280;37131;42.694;23.350;2023-12-22T10:32:14;93809.00;;;4.63;84.11
51083;BME280;37131;42.694;23.350;2023-12-22T10:34:40;93805.13;;;4.92;83.39
51083;BME280;37131;42.694;23.350;2023-12-22T10:37:05;93807.66;;;5.00;83.31
51083;BME280;37131;42.694;23.350;2023-12-22T10:39:31;93805.66;;;5.26;82.19
51083;BME280;37131;42.694;23.350;2023-12-22T10:42:00;93796.66;;;5.39;81.27
51083;BME280;37131;42.694;23.350;2023-12-22T10:44:27;93783.53;;;5.42;80.99
51083;BME280;37131;42.694;23.350;2023-12-22T10:46:52;93783.97;;;5.53;80.88
51083;BME280;37131;42.694;23.350;2023-12-22T10:49:22;93781.56;;;5.83;79.98
51083;BME280;37131;42.694;23.350;2023-12-22T10:51:47;93762.50;;;5.62;79.55
51083;BME280;37131;42.694;23.350;2023-12-22T10:54:13;93756.69;;;6.00;78.44
51083;BME280;37131;42.694;23.350;2023-12-22T10:56:40;93766.66;;;6.17;77.27
51083;BME280;37131;42.694;23.350;2023-12-22T10:59:05;93764.59;;;6.13;76.77
51083;BME280;37131;42.694;23.350;2023-12-22T11:01:35;93763.19;;;6.10;77.43
51083;BME280;37131;42.694;23.350;2023-12-22T11:04:05;93771.41;;;6.43;75.50
51083;BME280;37131;42.694;23.350;2023-12-22T11:06:34;93759.25;;;6.60;74.85
51083;BME280;37131;42.694;23.350;2023-12-22T11:09:05;93760.13;;;6.52;75.67
51083;BME280;37131;42.694;23.350;2023-12-22T11:11:33;93748.56;;;6.56;75.86
51083;BME280;37131;42.694;23.350;2023-12-22T11:14:00;93735.72;;;6.56;75.32
51083;BME280;37131;42.694;23.350;2023-12-22T11:16:28;93719.09;;;6.82;75.66
51083;BME280;37131;42.694;23.350;2023-12-22T11:18:55;93717.00;;;6.85;73.02
51083;BME280;37131;42.694;23.350;2023-12-22T11:21:24;93720.09;;;6.81;74.24
51083;BME280;37131;42.694;23.350;2023-12-22T11:23:50;93713.28;;;6.88;73.51
51083;BME280;37131;42.694;23.350;2023-12-22T11:26:20;93720.00;;;6.89;73.44
51083;BME280;37131;42.694;23.350;2023-12-22T11:28:47;93719.47;;;7.08;73.67
51083;BME280;37131;42.694;23.350;2023-12-22T11:31:13;93720.81;;;7.04;73.39
51083;BME280;37131;42.694;23.350;2023-12-22T11:33:46;93721.50;;;7.27;73.19
51083;BME280;37131;42.694;23.350;2023-12-22T11:36:13;93739.09;;;7.30;71.67
51083;BME280;37131;42.694;23.350;2023-12-22T11:38:40;93750.16;;;7.31;72.09
51083;BME280;37131;42.694;23.350;2023-12-22T11:41:06;93750.69;;;7.41;71.89
51083;BME280;37131;42.694;23.350;2023-12-22T11:43:34;93757.31;;;7.50;70.90
51083;BME280;37131;42.694;23.350;2023-12-22T11:46:03;93765.56;;;7.46;72.31
51083;BME280;37131;42.694;23.350;2023-12-22T11:48:32;93767.16;;;7.61;70.18
51083;BME280;37131;42.694;23.350;2023-12-22T11:50:57;93774.00;;;7.25;71.82
51083;BME280;37131;42.694;23.350;2023-12-22T11:53:24;93765.34;;;7.26;69.30
51083;BME280;37131;42.694;23.350;2023-12-22T11:56:05;93769.91;;;7.30;68.98
51083;BME280;37131;42.694;23.350;2023-12-22T11:58:43;93753.19;;;7.35;68.10
51083;BME280;37131;42.694;23.350;2023-12-22T12:01:12;93754.53;;;7.16;66.13
51083;BME280;37131;42.694;23.350;2023-12-22T12:03:50;93760.63;;;7.15;67.03
51083;BME280;37131;42.694;23.350;2023-12-22T12:06:37;93756.84;;;7.25;65.91
51083;BME280;37131;42.694;23.350;2023-12-22T12:09:05;93751.22;;;7.37;65.13
51083;BME280;37131;42.694;23.350;2023-12-22T12:14:22;93770.78;;;7.38;66.01
51083;BME280;37131;42.694;23.350;2023-12-22T12:16:48;93769.91;;;7.30;65.10
51083;BME280;37131;42.694;23.350;2023-12-22T12:19:14;93762.47;;;7.36;65.34
51083;BME280;37131;42.694;23.350;2023-12-22T12:21:39;93764.53;;;7.25;64.59
51083;BME280;37131;42.694;23.350;2023-12-22T12:24:05;93756.28;;;7.30;63.85
51083;BME280;37131;42.694;23.350;2023-12-22T12:26:32;93748.34;;;7.25;64.97
51083;BME280;37131;42.694;23.350;2023-12-22T12:28:59;93733.47;;;7.06;65.39
51083;BME280;37131;42.694;23.350;2023-12-22T12:31:44;93726.91;;;7.03;65.15
51083;BME280;37131;42.694;23.350;2023-12-22T12:34:10;93737.63;;;7.07;65.09
51083;BME280;37131;42.694;23.350;2023-12-22T12:36:37;93726.91;;;7.03;66.52
51083;BME280;37131;42.694;23.350;2023-12-22T12:39:08;93721.97;;;7.02;65.13
51083;BME280;37131;42.694;23.350;2023-12-22T12:41:36;93716.13;;;6.93;64.05
51083;BME280;37131;42.694;23.350;2023-12-22T12:44:06;93716.28;;;7.06;63.38
51083;BME280;37131;42.694;23.350;2023-12-22T12:46:35;93701.88;;;7.05;63.00
51083;BME280;37131;42.694;23.350;2023-12-22T12:51:31;93714.69;;;7.05;62.28
51083;BME280;37131;42.694;23.350;2023-12-22T12:54:00;93719.47;;;6.93;62.17
51083;BME280;37131;42.694;23.350;2023-12-22T12:56:25;93724.00;;;7.06;62.45
51083;BME280;37131;42.694;23.350;2023-12-22T12:58:51;93734.00;;;7.01;63.16
51083;BME280;37131;42.694;23.350;2023-12-22T13:01:16;93739.56;;;7.05;62.44
51083;BME280;37131;42.694;23.350;2023-12-22T13:03:52;93748.16;;;7.12;62.77
51083;BME280;37131;42.694;23.350;2023-12-22T13:06:18;93749.22;;;7.03;63.32